Time;durP1;ratioP1;P1;durP2;ratioP2;P2;SDS_P1;SDS_P2;PMS_P1;PMS_P2;Temp;Humidity;BMP_temperature;BMP_pressure;BME280_temperature;BME280_humidity;BME280_pressure;Samples;Min_cycle;Max_cycle;Signal;HPM_P1;HPM_P2
2023/03/15 00:01:31;;;;;;;3.70;1.00;;;4.90;60.60;;;;;;5051444;28;20266;-70
2023/03/15 00:03:58;;;;;;;3.90;1.20;;;5.00;59.50;;;;;;5050815;28;20255;-69
2023/03/15 00:06:24;;;;;;;3.80;1.10;;;5.30;59.30;;;;;;5050841;28;20184;-70
2023/03/15 00:08:50;;;;;;;3.80;1.10;;;5.00;58.90;;;;;;5052353;28;20260;-70
2023/03/15 00:11:16;;;;;;;3.90;1.20;;;4.80;61.10;;;;;;5051653;28;20229;-69
2023/03/15 00:13:43;;;;;;;3.90;1.20;;;4.80;60.10;;;;;;5046914;28;20196;-70
2023/03/15 00:16:10;;;;;;;6.20;1.52;;;4.70;61.70;;;;;;5050612;28;20221;-69
2023/03/15 00:18:36;;;;;;;3.80;1.10;;;4.70;60.60;;;;;;5051545;28;20326;-70
2023/03/15 00:21:02;;;;;;;3.80;1.10;;;4.90;61.20;;;;;;5051602;28;20235;-70
2023/03/15 00:23:27;;;;;;;3.90;1.10;;;5.10;58.80;;;;;;5049897;28;20430;-70
2023/03/15 00:25:54;;;;;;;3.90;1.10;;;5.50;55.10;;;;;;5050222;28;20175;-68
2023/03/15 00:28:20;;;;;;;3.90;1.10;;;5.50;55.40;;;;;;5051922;28;20458;-69
2023/03/15 00:30:45;;;;;;;3.90;1.10;;;5.50;55.50;;;;;;5045492;28;20276;-66
2023/03/15 00:33:12;;;;;;;3.90;1.17;;;5.20;56.30;;;;;;5031299;28;20407;-67
2023/03/15 00:35:40;;;;;;;3.90;1.17;;;5.10;58.40;;;;;;5036765;28;20207;-69
2023/03/15 00:38:06;;;;;;;4.00;1.10;;;4.80;60.20;;;;;;5046185;28;20211;-69
2023/03/15 00:40:32;;;;;;;3.95;1.10;;;5.00;60.20;;;;;;5050579;28;20638;-69
2023/03/15 00:42:58;;;;;;;4.00;1.10;;;5.00;57.10;;;;;;5051418;28;20178;-69
2023/03/15 00:45:24;;;;;;;3.90;1.10;;;5.00;58.40;;;;;;5051078;28;20648;-69
2023/03/15 00:47:51;;;;;;;7.22;1.80;;;5.40;56.40;;;;;;5048931;28;20650;-69
2023/03/15 00:50:18;;;;;;;4.00;1.10;;;5.20;55.60;;;;;;5051631;28;20222;-69
2023/03/15 00:52:43;;;;;;;3.90;1.10;;;5.30;56.20;;;;;;5051347;28;20266;-69
2023/03/15 00:55:12;;;;;;;3.83;1.00;;;4.80;58.10;;;;;;5051212;28;20291;-69
2023/03/15 00:57:39;;;;;;;3.95;1.10;;;4.90;57.90;;;;;;5048087;28;20733;-69
2023/03/15 01:00:10;;;;;;;3.92;1.10;;;4.70;58.20;;;;;;5049806;28;20184;-68
2023/03/15 01:02:36;;;;;;;4.10;1.20;;;4.70;58.80;;;;;;5049860;28;20195;-69
2023/03/15 01:05:06;;;;;;;4.00;1.15;;;5.10;57.50;;;;;;5051288;28;20176;-69
2023/03/15 01:07:34;;;;;;;3.97;1.20;;;5.10;55.30;;;;;;5047622;28;20206;-69
2023/03/15 01:10:01;;;;;;;4.00;1.10;;;5.20;55.40;;;;;;5044496;28;20195;-69
2023/03/15 01:12:28;;;;;;;3.90;1.10;;;5.40;54.60;;;;;;5051283;28;20723;-68
2023/03/15 01:14:54;;;;;;;3.90;1.10;;;5.60;53.90;;;;;;5051368;28;20985;-69
2023/03/15 01:17:20;;;;;;;3.87;1.07;;;5.80;51.30;;;;;;5049056;28;20180;-69
2023/03/15 01:19:46;;;;;;;3.92;1.30;;;5.70;51.70;;;;;;5048170;28;20215;-69
2023/03/15 01:22:11;;;;;;;3.90;1.10;;;5.60;51.20;;;;;;5051480;28;21038;-69
2023/03/15 01:24:37;;;;;;;3.87;1.10;;;5.00;53.00;;;;;;5050797;28;20172;-69
2023/03/15 01:27:02;;;;;;;3.90;1.10;;;5.10;53.10;;;;;;5050263;28;20547;-69
2023/03/15 01:29:28;;;;;;;3.97;1.10;;;4.90;54.30;;;;;;5048912;28;20265;-69
2023/03/15 01:31:53;;;;;;;3.90;1.10;;;5.30;53.90;;;;;;5050340;28;20638;-68
2023/03/15 01:34:20;;;;;;;3.90;1.00;;;5.40;52.00;;;;;;5050879;28;20211;-68
2023/03/15 01:36:50;;;;;;;3.97;1.10;;;5.20;53.70;;;;;;5051255;28;20211;-69
2023/03/15 01:39:16;;;;;;;3.90;1.10;;;5.30;54.50;;;;;;5049345;28;20275;-68
2023/03/15 01:41:41;;;;;;;3.97;1.10;;;5.30;52.60;;;;;;5042891;28;20266;-69
2023/03/15 01:44:17;;;;;;;3.90;1.00;;;5.40;52.20;;;;;;5050240;28;20175;-68
2023/03/15 01:46:43;;;;;;;4.00;1.20;;;5.80;51.50;;;;;;5042832;28;20638;-67
2023/03/15 01:49:16;;;;;;;4.00;1.10;;;6.00;48.40;;;;;;5049705;28;20203;-69
2023/03/15 01:51:48;;;;;;;3.90;1.00;;;5.70;49.80;;;;;;5048469;28;20310;-69
2023/03/15 01:54:48;;;;;;;4.00;1.10;;;5.70;49.10;;;;;;5054558;28;20206;-68
2023/03/15 01:57:21;;;;;;;3.90;1.10;;;5.90;49.00;;;;;;5054647;28;20156;-68
2023/03/15 01:59:53;;;;;;;4.07;1.20;;;6.20;47.40;;;;;;5053773;28;20674;-69
2023/03/15 02:02:22;;;;;;;4.10;1.20;;;6.40;46.50;;;;;;5052422;28;20176;-68
2023/03/15 02:04:53;;;;;;;3.97;1.10;;;6.20;46.30;;;;;;5053519;28;20203;-69
2023/03/15 02:07:21;;;;;;;4.05;1.10;;;6.50;45.00;;;;;;5054617;28;20187;-69
2023/03/15 02:10:00;;;;;;;4.05;1.10;;;6.60;44.30;;;;;;5050655;28;20548;-69
2023/03/15 02:12:27;;;;;;;4.00;1.10;;;6.70;43.00;;;;;;5052664;28;20191;-68
2023/03/15 02:14:53;;;;;;;4.10;1.10;;;6.80;42.80;;;;;;5054376;28;20199;-69
2023/03/15 02:17:24;;;;;;;4.07;1.08;;;7.00;42.70;;;;;;5054227;28;20168;-67
2023/03/15 02:20:26;;;;;;;4.35;1.42;;;7.00;44.70;;;;;;5049202;28;20265;-69
2023/03/15 02:23:06;;;;;;;4.20;1.10;;;7.10;41.70;;;;;;4995932;28;20269;-69
2023/03/15 02:25:43;;;;;;;4.15;1.10;;;6.90;41.90;;;;;;5054285;28;20186;-69
2023/03/15 02:28:11;;;;;;;4.13;1.10;;;6.60;42.00;;;;;;5054232;28;20211;-69
2023/03/15 02:30:37;;;;;;;4.07;1.17;;;6.60;42.40;;;;;;5048979;28;20546;-69
2023/03/15 02:33:09;;;;;;;4.88;1.58;;;6.60;41.30;;;;;;5054103;28;20188;-69
2023/03/15 02:35:35;;;;;;;4.20;1.10;;;6.50;42.60;;;;;;5052929;28;20219;-69
2023/03/15 02:38:01;;;;;;;4.10;1.10;;;6.50;44.30;;;;;;5054161;28;20206;-69
2023/03/15 02:40:28;;;;;;;4.20;1.10;;;6.70;42.90;;;;;;5053563;28;20176;-69
2023/03/15 02:42:59;;;;;;;4.35;1.20;;;6.70;42.80;;;;;;5050364;28;20187;-69
2023/03/15 02:45:25;;;;;;;4.30;1.13;;;6.60;43.30;;;;;;5053238;28;20186;-69
2023/03/15 02:47:52;;;;;;;4.20;1.10;;;6.40;43.00;;;;;;5053551;28;20196;-69
2023/03/15 02:50:17;;;;;;;4.20;1.00;;;6.20;44.60;;;;;;5054099;28;20207;-69
2023/03/15 02:52:43;;;;;;;4.40;1.20;;;6.40;42.90;;;;;;5051105;28;20212;-69
2023/03/15 02:55:09;;;;;;;4.30;1.10;;;6.70;42.70;;;;;;5053027;28;20196;-69
2023/03/15 02:57:35;;;;;;;4.33;1.10;;;6.20;43.60;;;;;;5052682;28;20450;-67
2023/03/15 03:00:10;;;;;;;4.30;1.10;;;6.20;42.90;;;;;;5053938;28;20468;-69
2023/03/15 03:02:36;;;;;;;4.35;1.15;;;6.30;42.50;;;;;;5050947;28;20188;-69
2023/03/15 03:05:02;;;;;;;4.40;1.10;;;6.50;41.90;;;;;;5056821;28;20184;-69
2023/03/15 03:07:27;;;;;;;4.30;1.10;;;6.50;41.50;;;;;;5057562;28;20184;-68
2023/03/15 03:09:53;;;;;;;4.37;1.10;;;6.40;41.70;;;;;;5057861;28;20179;-69
2023/03/15 03:12:18;;;;;;;4.37;1.10;;;6.40;41.00;;;;;;5056086;28;20187;-69
2023/03/15 03:14:44;;;;;;;4.40;1.10;;;6.40;41.50;;;;;;5044288;28;20207;-68
2023/03/15 03:17:09;;;;;;;4.30;1.00;;;6.20;41.70;;;;;;5053553;28;20176;-68
2023/03/15 03:19:35;;;;;;;4.30;1.00;;;6.30;41.60;;;;;;5053116;28;20220;-69
2023/03/15 03:22:01;;;;;;;4.43;1.23;;;6.30;41.50;;;;;;5053451;28;20175;-69
2023/03/15 03:24:26;;;;;;;4.37;1.10;;;6.30;41.10;;;;;;5050897;28;20714;-68
2023/03/15 03:26:56;;;;;;;4.40;1.10;;;6.30;40.90;;;;;;5052459;28;20847;-69
2023/03/15 03:29:22;;;;;;;4.43;1.10;;;6.20;41.00;;;;;;5053143;28;20196;-69
2023/03/15 03:31:49;;;;;;;4.47;1.20;;;6.10;41.00;;;;;;5053234;28;20208;-68
2023/03/15 03:34:15;;;;;;;4.47;1.20;;;6.30;39.90;;;;;;5051634;28;20606;-68
2023/03/15 03:36:42;;;;;;;4.70;1.30;;;6.30;40.50;;;;;;5050918;28;20282;-69
2023/03/15 03:39:08;;;;;;;4.40;1.10;;;6.00;40.50;;;;;;5053184;28;20183;-69
2023/03/15 03:41:34;;;;;;;4.47;1.10;;;6.00;40.50;;;;;;5052210;28;20183;-69
2023/03/15 03:43:59;;;;;;;4.47;1.10;;;6.10;39.80;;;;;;5052516;28;20935;-69
2023/03/15 03:46:27;;;;;;;4.47;1.10;;;6.10;40.30;;;;;;5049379;28;20267;-69
2023/03/15 03:48:53;;;;;;;4.47;1.08;;;5.80;40.70;;;;;;5052367;28;20198;-69
2023/03/15 03:51:19;;;;;;;4.50;1.10;;;6.00;41.70;;;;;;5052788;28;20617;-67
2023/03/15 03:53:45;;;;;;;4.50;1.20;;;6.00;41.00;;;;;;5052377;28;20195;-68
2023/03/15 03:56:10;;;;;;;4.40;1.10;;;6.00;40.90;;;;;;5050087;28;20947;-68
2023/03/15 03:58:36;;;;;;;4.47;1.10;;;6.10;41.50;;;;;;5050854;28;20204;-69
2023/03/15 04:01:03;;;;;;;4.80;1.33;;;6.20;40.60;;;;;;5052529;28;20665;-68
2023/03/15 04:03:28;;;;;;;4.50;1.10;;;5.60;40.20;;;;;;5052270;28;20172;-67
2023/03/15 04:05:56;;;;;;;5.63;1.50;;;5.60;41.30;;;;;;5052552;28;20176;-69
2023/03/15 04:08:22;;;;;;;4.50;1.10;;;5.90;40.60;;;;;;5049453;28;20251;-69
2023/03/15 04:10:56;;;;;;;4.50;1.10;;;6.10;40.00;;;;;;5052051;28;20187;-69
2023/03/15 04:13:23;;;;;;;4.50;1.10;;;6.20;39.10;;;;;;5051887;28;20579;-69
2023/03/15 04:15:50;;;;;;;4.50;1.10;;;5.90;40.70;;;;;;5050536;28;20180;-67
2023/03/15 04:18:16;;;;;;;4.40;1.00;;;5.90;41.50;;;;;;5042603;28;20208;-69
2023/03/15 04:20:48;;;;;;;4.50;1.00;;;6.00;41.50;;;;;;5050777;28;20654;-69
2023/03/15 04:23:15;;;;;;;4.50;1.10;;;5.90;42.10;;;;;;5051315;28;20183;-68
2023/03/15 04:25:41;;;;;;;4.53;1.13;;;5.70;40.90;;;;;;5051909;28;20183;-68
2023/03/15 04:28:09;;;;;;;4.55;1.20;;;5.80;42.20;;;;;;5050122;28;20222;-69
2023/03/15 04:30:35;;;;;;;4.85;1.20;;;5.70;42.80;;;;;;5051275;28;20560;-69
2023/03/15 04:33:02;;;;;;;4.60;1.10;;;5.90;41.10;;;;;;5051510;28;20267;-69
2023/03/15 04:35:36;;;;;;;4.60;1.10;;;5.70;41.00;;;;;;5051707;28;20649;-69
2023/03/15 04:38:02;;;;;;;4.60;1.10;;;5.50;41.50;;;;;;5050958;28;20230;-68
2023/03/15 04:40:29;;;;;;;4.65;1.20;;;5.70;41.90;;;;;;5048462;28;20183;-69
2023/03/15 04:42:55;;;;;;;4.60;1.10;;;5.40;41.10;;;;;;5051450;28;20235;-69
2023/03/15 04:45:25;;;;;;;4.63;1.10;;;5.60;42.60;;;;;;5051550;28;20274;-69
2023/03/15 04:47:51;;;;;;;4.70;1.20;;;5.80;41.50;;;;;;5050318;28;20450;-69
2023/03/15 04:50:18;;;;;;;4.60;1.10;;;5.80;41.20;;;;;;5049510;28;20184;-69
2023/03/15 04:52:44;;;;;;;4.60;1.20;;;5.70;41.00;;;;;;5050796;28;20191;-68
2023/03/15 04:55:09;;;;;;;4.60;1.10;;;5.90;40.20;;;;;;5051771;28;20199;-69
2023/03/15 04:57:35;;;;;;;4.63;1.10;;;6.10;40.20;;;;;;5050869;28;20277;-69
2023/03/15 05:00:04;;;;;;;5.57;1.83;;;5.90;40.10;;;;;;5049434;28;20501;-69
2023/03/15 05:02:30;;;;;;;4.60;1.10;;;5.80;41.00;;;;;;5048920;28;20203;-68
2023/03/15 05:04:55;;;;;;;4.70;1.20;;;5.90;40.80;;;;;;5051269;28;20218;-69
2023/03/15 05:07:21;;;;;;;4.70;1.20;;;5.60;41.80;;;;;;5051427;28;20179;-69
2023/03/15 05:09:46;;;;;;;4.63;1.10;;;5.70;42.10;;;;;;5050451;28;20207;-69
2023/03/15 05:12:12;;;;;;;4.53;1.10;;;5.80;41.80;;;;;;5048201;28;20180;-69
2023/03/15 05:14:38;;;;;;;4.60;1.10;;;5.80;41.60;;;;;;5050891;28;20196;-69
2023/03/15 05:17:04;;;;;;;4.63;1.10;;;5.70;41.60;;;;;;5051776;28;20494;-69
2023/03/15 05:19:33;;;;;;;4.60;1.10;;;5.50;43.30;;;;;;5050742;28;20207;-69
2023/03/15 05:21:59;;;;;;;4.60;1.10;;;5.60;43.00;;;;;;5044179;28;20581;-69
2023/03/15 05:24:25;;;;;;;4.60;1.10;;;5.60;42.60;;;;;;5047953;28;20211;-69
2023/03/15 05:26:53;;;;;;;4.60;1.10;;;5.60;42.80;;;;;;5050903;28;20651;-69
2023/03/15 05:29:20;;;;;;;4.60;1.10;;;5.60;42.40;;;;;;5050507;28;20507;-68
2023/03/15 05:31:46;;;;;;;4.70;1.20;;;5.60;42.60;;;;;;5049324;28;20259;-67
2023/03/15 05:34:11;;;;;;;4.60;1.10;;;5.40;43.70;;;;;;5049415;28;20306;-69
2023/03/15 05:36:37;;;;;;;4.57;1.10;;;5.50;43.20;;;;;;5050953;28;20414;-68
2023/03/15 05:39:03;;;;;;;4.60;1.10;;;5.40;43.60;;;;;;5043258;28;20219;-69
2023/03/15 05:41:29;;;;;;;4.60;1.10;;;5.60;43.10;;;;;;5048392;28;20513;-69
2023/03/15 05:43:54;;;;;;;4.53;1.10;;;5.50;43.00;;;;;;5048974;28;20180;-69
2023/03/15 05:46:21;;;;;;;4.67;1.10;;;5.50;43.60;;;;;;5034275;28;20175;-69
2023/03/15 05:48:47;;;;;;;4.63;1.10;;;5.60;42.20;;;;;;5050829;28;20183;-69
2023/03/15 05:51:13;;;;;;;4.63;1.10;;;5.80;41.20;;;;;;5050766;28;20176;-69
2023/03/15 05:53:39;;;;;;;4.65;1.10;;;5.80;41.60;;;;;;5050041;28;20191;-68
2023/03/15 05:56:05;;;;;;;4.63;1.10;;;5.70;42.40;;;;;;5064899;28;20184;-69
2023/03/15 05:58:30;;;;;;;4.67;1.07;;;5.80;41.80;;;;;;5045116;28;20226;-69
2023/03/15 06:00:56;;;;;;;4.70;1.10;;;5.70;43.30;;;;;;5050113;28;20414;-69
2023/03/15 06:03:22;;;;;;;4.83;1.40;;;5.60;43.30;;;;;;5045537;28;20172;-69
2023/03/15 06:05:47;;;;;;;4.80;1.10;;;5.50;43.20;;;;;;5051105;28;20200;-69
2023/03/15 06:08:13;;;;;;;4.70;1.10;;;5.20;44.00;;;;;;5051241;28;20192;-69
2023/03/15 06:10:39;;;;;;;4.70;1.00;;;5.20;44.50;;;;;;5051213;28;20244;-68
2023/03/15 06:13:04;;;;;;;4.77;1.10;;;5.40;43.60;;;;;;5047655;28;20566;-69
2023/03/15 06:15:30;;;;;;;4.80;1.13;;;5.50;44.50;;;;;;5049493;28;20215;-69
2023/03/15 06:17:56;;;;;;;4.80;1.10;;;5.50;44.00;;;;;;5050779;28;20705;-68
2023/03/15 06:20:21;;;;;;;5.20;1.53;;;5.50;44.00;;;;;;5051141;28;20180;-69
2023/03/15 06:22:47;;;;;;;4.90;1.20;;;5.50;43.70;;;;;;5048532;28;20183;-69
2023/03/15 06:25:12;;;;;;;4.87;1.10;;;5.60;43.90;;;;;;5046837;28;20239;-69
2023/03/15 06:27:38;;;;;;;4.80;1.10;;;5.70;43.90;;;;;;5050655;28;20206;-68
2023/03/15 06:30:05;;;;;;;4.90;1.10;;;5.80;43.20;;;;;;5052507;28;20418;-70
2023/03/15 06:32:30;;;;;;;5.10;1.40;;;5.70;43.50;;;;;;5050143;28;20192;-66
2023/03/15 06:34:56;;;;;;;4.90;1.20;;;5.70;43.40;;;;;;5044535;28;20261;-69
2023/03/15 06:37:22;;;;;;;5.00;1.20;;;5.70;43.60;;;;;;5050064;28;20234;-69
2023/03/15 06:39:47;;;;;;;4.90;1.13;;;5.90;41.40;;;;;;5054218;28;20577;-69
2023/03/15 06:42:13;;;;;;;4.80;1.00;;;6.10;41.50;;;;;;5053676;28;20191;-69
2023/03/15 06:44:40;;;;;;;4.80;1.10;;;6.30;39.40;;;;;;5049310;28;20184;-68
2023/03/15 06:47:06;;;;;;;4.72;1.00;;;6.20;40.40;;;;;;5053040;28;20181;-69
2023/03/15 06:49:32;;;;;;;4.70;1.10;;;6.30;39.90;;;;;;5053110;28;20196;-69
2023/03/15 06:51:58;;;;;;;4.65;1.10;;;6.60;38.80;;;;;;5052663;28;20179;-69
2023/03/15 06:54:24;;;;;;;4.87;1.20;;;6.80;36.90;;;;;;5052755;28;20199;-69
2023/03/15 06:56:50;;;;;;;4.60;1.10;;;7.00;36.30;;;;;;5052169;28;20190;-70
2023/03/15 06:59:16;;;;;;;4.50;1.10;;;6.80;35.70;;;;;;5054135;28;20283;-69
2023/03/15 07:01:41;;;;;;;4.40;1.10;;;6.80;36.20;;;;;;5053709;28;20208;-68
2023/03/15 07:04:08;;;;;;;4.37;1.10;;;6.90;35.80;;;;;;5052391;28;20219;-69
2023/03/15 07:06:34;;;;;;;4.35;1.10;;;7.00;34.40;;;;;;5043073;28;20172;-68
2023/03/15 07:09:00;;;;;;;8.00;2.65;;;6.80;34.70;;;;;;5052124;28;20207;-69
2023/03/15 07:11:26;;;;;;;4.30;1.10;;;7.20;34.00;;;;;;5052286;28;20191;-69
2023/03/15 07:13:51;;;;;;;4.13;1.20;;;7.30;36.60;;;;;;5051260;28;20473;-77
2023/03/15 07:16:17;;;;;;;3.90;1.10;;;7.10;35.30;;;;;;5052137;28;20195;-76
2023/03/15 07:18:42;;;;;;;3.93;1.10;;;7.40;35.00;;;;;;5052823;28;20215;-76
2023/03/15 07:21:08;;;;;;;3.80;1.13;;;7.60;34.60;;;;;;5058194;28;20194;-76
2023/03/15 07:23:34;;;;;;;3.70;1.10;;;7.70;34.10;;;;;;5052695;28;20230;-71
2023/03/15 07:25:59;;;;;;;3.70;1.20;;;7.70;33.80;;;;;;5047595;28;20184;-71
2023/03/15 07:28:26;;;;;;;3.50;1.20;;;7.20;34.70;;;;;;5046134;28;20251;-71
2023/03/15 07:31:00;;;;;;;3.50;1.20;;;6.70;36.30;;;;;;5048507;28;20550;-69
2023/03/15 07:33:28;;;;;;;3.40;1.10;;;6.60;36.00;;;;;;5066128;28;20182;-70
2023/03/15 07:35:54;;;;;;;3.40;1.10;;;6.40;36.10;;;;;;5034243;28;20177;-72
2023/03/15 07:38:25;;;;;;;3.30;1.10;;;7.10;34.60;;;;;;5023758;28;20865;-70
2023/03/15 07:40:51;;;;;;;3.40;1.10;;;7.10;33.60;;;;;;5048271;28;20449;-71
2023/03/15 07:43:18;;;;;;;3.20;1.10;;;7.20;34.30;;;;;;5050752;28;20173;-72
2023/03/15 07:45:43;;;;;;;3.20;1.00;;;7.50;33.20;;;;;;5052406;28;20909;-72
2023/03/15 07:48:10;;;;;;;3.20;1.10;;;8.00;32.80;;;;;;5051369;28;20212;-75
2023/03/15 07:50:36;;;;;;;3.20;1.10;;;8.00;30.70;;;;;;5054648;28;20180;-70
2023/03/15 07:53:03;;;;;;;3.10;1.10;;;8.10;31.70;;;;;;5052134;28;20176;-69
2023/03/15 07:55:28;;;;;;;3.20;1.20;;;8.20;31.80;;;;;;5049718;28;20520;-69
2023/03/15 07:57:54;;;;;;;3.00;1.00;;;8.40;29.80;;;;;;5054825;28;20211;-70
2023/03/15 08:00:21;;;;;;;3.00;1.00;;;8.50;30.30;;;;;;5055333;28;20207;-69
2023/03/15 08:02:46;;;;;;;3.10;1.10;;;8.10;29.30;;;;;;5054623;28;20224;-69
2023/03/15 08:05:12;;;;;;;3.00;1.07;;;7.60;28.50;;;;;;5050173;28;20196;-69
2023/03/15 08:07:38;;;;;;;3.00;1.10;;;7.80;30.30;;;;;;5051036;28;20261;-69
2023/03/15 08:10:06;;;;;;;3.13;1.30;;;8.10;29.70;;;;;;5052653;28;20195;-69
2023/03/15 08:12:33;;;;;;;2.90;1.10;;;7.90;29.00;;;;;;5053716;28;20266;-69
2023/03/15 08:14:59;;;;;;;2.90;1.10;;;7.80;31.40;;;;;;5053994;28;20675;-70
2023/03/15 08:17:25;;;;;;;2.87;1.10;;;8.00;29.30;;;;;;5046667;28;20265;-68
2023/03/15 08:19:50;;;;;;;2.80;1.17;;;8.30;28.50;;;;;;5050923;28;20219;-69
2023/03/15 08:22:16;;;;;;;2.80;1.10;;;8.10;29.50;;;;;;5053066;28;20180;-69
2023/03/15 08:24:42;;;;;;;2.90;1.30;;;7.70;28.60;;;;;;5051845;28;20187;-69
2023/03/15 08:27:08;;;;;;;2.70;1.10;;;7.40;28.10;;;;;;5053574;28;20184;-68
2023/03/15 08:29:33;;;;;;;2.70;1.10;;;7.10;28.30;;;;;;5053941;28;20202;-68
2023/03/15 08:31:59;;;;;;;2.60;1.10;;;6.90;30.30;;;;;;5056499;28;20196;-68
2023/03/15 08:34:24;;;;;;;2.60;1.00;;;7.00;30.80;;;;;;5055311;28;20263;-69
2023/03/15 08:36:50;;;;;;;2.70;1.20;;;7.60;28.90;;;;;;5056590;28;20179;-67
2023/03/15 08:39:16;;;;;;;2.60;1.10;;;7.30;29.10;;;;;;5052997;28;20226;-65
2023/03/15 08:41:42;;;;;;;3.57;1.60;;;7.30;28.30;;;;;;5055857;28;20188;-67
2023/03/15 08:44:09;;;;;;;2.60;1.10;;;7.90;28.70;;;;;;5057744;28;20172;-68
2023/03/15 08:46:35;;;;;;;2.50;1.00;;;7.80;27.70;;;;;;5058095;28;20188;-69
2023/03/15 08:49:01;;;;;;;2.40;1.00;;;7.70;27.90;;;;;;5054396;28;20988;-69
2023/03/15 08:51:28;;;;;;;2.50;1.10;;;7.90;27.00;;;;;;5051452;28;20180;-65
2023/03/15 08:53:53;;;;;;;2.60;1.10;;;8.10;26.70;;;;;;5051917;28;20626;-69
2023/03/15 08:56:19;;;;;;;2.37;1.00;;;7.70;26.60;;;;;;5056949;28;20180;-68
2023/03/15 08:58:45;;;;;;;2.40;1.10;;;7.80;28.20;;;;;;5055103;28;20214;-69
2023/03/15 09:01:11;;;;;;;2.40;1.20;;;7.40;28.60;;;;;;5045651;28;20188;-68
2023/03/15 09:03:38;;;;;;;2.53;1.20;;;7.20;28.00;;;;;;5044687;28;20204;-68
2023/03/15 09:06:03;;;;;;;2.50;1.15;;;7.30;28.90;;;;;;5046419;28;20651;-69
2023/03/15 09:08:32;;;;;;;2.40;1.10;;;7.20;28.80;;;;;;5048218;28;20212;-68
2023/03/15 09:10:58;;;;;;;2.30;1.10;;;7.20;28.00;;;;;;5045886;28;20180;-69
2023/03/15 09:13:24;;;;;;;2.30;1.08;;;7.60;27.70;;;;;;5051719;28;20209;-67
2023/03/15 09:15:51;;;;;;;2.50;1.20;;;7.70;27.80;;;;;;5051806;28;20196;-69
2023/03/15 09:18:18;;;;;;;6.30;1.83;;;7.20;27.60;;;;;;5051417;28;20199;-68
2023/03/15 09:20:44;;;;;;;2.20;1.10;;;7.10;27.50;;;;;;5051009;28;20172;-69
2023/03/15 09:23:09;;;;;;;2.30;1.20;;;7.20;26.00;;;;;;5053488;28;20640;-69
2023/03/15 09:25:38;;;;;;;2.30;1.20;;;7.60;27.30;;;;;;5052093;28;20433;-69
2023/03/15 09:28:09;;;;;;;2.40;1.20;;;7.70;26.90;;;;;;5051851;28;20503;-69
2023/03/15 09:30:36;;;;;;;2.20;1.10;;;7.10;28.00;;;;;;5050988;28;20568;-68
2023/03/15 09:33:02;;;;;;;2.30;1.00;;;7.80;27.50;;;;;;5051593;28;20203;-69
2023/03/15 09:35:28;;;;;;;2.20;1.00;;;8.40;27.10;;;;;;5052402;28;20227;-69
2023/03/15 09:37:54;;;;;;;2.30;1.10;;;9.00;26.40;;;;;;5052194;28;20444;-69
2023/03/15 09:40:26;;;;;;;2.20;1.10;;;9.00;25.50;;;;;;5050702;28;20410;-68
2023/03/15 09:42:52;;;;;;;2.00;1.20;;;8.70;25.70;;;;;;5046262;28;20653;-69
2023/03/15 09:45:39;;;;;;;2.20;1.40;;;9.40;23.30;;;;;;5040404;28;20184;-69
2023/03/15 09:48:36;;;;;;;2.10;1.20;;;9.40;24.70;;;;;;5045954;28;20795;-69
2023/03/15 09:51:09;;;;;;;2.50;1.48;;;9.20;23.80;;;;;;5041999;28;20180;-69
2023/03/15 09:53:42;;;;;;;2.10;1.10;;;9.80;24.20;;;;;;5046230;28;20191;-69
2023/03/15 09:56:46;;;;;;;2.00;1.30;;;9.70;25.10;;;;;;5045986;28;20223;-69
2023/03/15 09:59:15;;;;;;;3.15;1.85;;;9.70;22.40;;;;;;5047060;28;20456;-69
2023/03/15 10:01:42;;;;;;;2.00;1.20;;;9.00;23.80;;;;;;5046695;28;20184;-69
2023/03/15 10:04:25;;;;;;;2.00;1.08;;;9.10;24.40;;;;;;5046459;28;20518;-70
2023/03/15 10:07:00;;;;;;;2.10;1.10;;;8.50;24.60;;;;;;5040282;28;20183;-65
2023/03/15 10:09:31;;;;;;;3.30;1.52;;;8.20;26.30;;;;;;5044654;28;20456;-69
2023/03/15 10:12:14;;;;;;;1.90;1.20;;;8.00;26.40;;;;;;5050917;28;20187;-69
2023/03/15 10:15:15;;;;;;;2.00;1.15;;;8.60;24.90;;;;;;5052986;28;20453;-69
2023/03/15 10:17:54;;;;;;;1.98;1.10;;;8.50;24.80;;;;;;5028963;28;20240;-68
2023/03/15 10:20:24;;;;;;;2.00;1.10;;;8.00;26.10;;;;;;5056053;28;20179;-69
2023/03/15 10:23:02;;;;;;;3.95;1.40;;;7.70;26.70;;;;;;5054997;28;20809;-69
2023/03/15 10:25:30;;;;;;;1.90;1.10;;;8.20;27.00;;;;;;5055011;28;20214;-69
2023/03/15 10:28:06;;;;;;;1.80;1.10;;;8.30;26.70;;;;;;5055657;28;20208;-69
2023/03/15 10:30:35;;;;;;;1.80;1.10;;;8.70;24.50;;;;;;5054383;28;20294;-69
2023/03/15 10:33:18;;;;;;;1.90;1.10;;;8.90;24.60;;;;;;5049561;28;20253;-66
2023/03/15 10:35:43;;;;;;;1.80;1.10;;;9.30;24.60;;;;;;5047991;28;20241;-69
2023/03/15 10:38:18;;;;;;;1.80;1.10;;;9.60;24.90;;;;;;5052305;28;20581;-68
2023/03/15 10:40:46;;;;;;;1.80;1.08;;;10.10;22.60;;;;;;5047844;28;20271;-69
2023/03/15 10:43:23;;;;;;;2.00;1.20;;;10.20;22.80;;;;;;5047765;28;20176;-69
2023/03/15 10:46:03;;;;;;;1.85;1.08;;;9.20;25.70;;;;;;5045598;28;20180;-69
2023/03/15 10:48:30;;;;;;;1.83;1.10;;;8.90;26.70;;;;;;5054657;28;20620;-70
2023/03/15 10:51:01;;;;;;;1.92;1.15;;;9.80;25.10;;;;;;5052459;28;20222;-69
2023/03/15 10:53:26;;;;;;;1.80;1.10;;;9.90;24.40;;;;;;5054129;28;20183;-70
2023/03/15 10:56:02;;;;;;;1.73;1.10;;;9.30;23.10;;;;;;5053663;28;20458;-69
2023/03/15 10:58:41;;;;;;;1.80;1.10;;;9.20;23.70;;;;;;5054250;28;20198;-69
2023/03/15 11:01:12;;;;;;;1.90;1.20;;;9.80;23.20;;;;;;5054638;28;20160;-70
2023/03/15 11:03:40;;;;;;;1.80;1.30;;;10.30;22.10;;;;;;5055265;28;20165;-68
2023/03/15 11:06:27;;;;;;;2.10;1.30;;;11.70;20.00;;;;;;5053184;28;20459;-68
2023/03/15 11:09:06;;;;;;;2.67;1.50;;;12.30;19.70;;;;;;5049204;28;20434;-70
2023/03/15 11:11:57;;;;;;;1.90;1.20;;;13.20;17.60;;;;;;5055444;28;20414;-70
2023/03/15 11:14:23;;;;;;;2.00;1.30;;;14.20;17.40;;;;;;5055335;28;20583;-70
2023/03/15 11:16:52;;;;;;;1.80;1.10;;;14.60;16.10;;;;;;5053757;28;20437;-70
2023/03/15 11:19:26;;;;;;;1.87;1.23;;;14.80;16.90;;;;;;5053789;28;20484;-70
2023/03/15 11:21:53;;;;;;;2.53;1.43;;;13.60;18.00;;;;;;5037404;28;20406;-68
2023/03/15 11:24:29;;;;;;;1.90;1.20;;;12.80;18.50;;;;;;5054903;28;20747;-70
2023/03/15 11:27:00;;;;;;;1.80;1.10;;;14.40;16.80;;;;;;5055559;28;20805;-70
2023/03/15 11:29:36;;;;;;;1.80;1.20;;;14.40;18.50;;;;;;5050953;28;20454;-70
2023/03/15 11:32:16;;;;;;;1.80;1.10;;;15.30;15.00;;;;;;5049235;28;20410;-70
2023/03/15 11:35:15;;;;;;;1.90;1.27;;;14.50;14.30;;;;;;5033806;28;20624;-70
2023/03/15 11:37:54;;;;;;;1.90;1.20;;;14.50;15.30;;;;;;5034338;28;20427;-70
2023/03/15 11:40:42;;;;;;;1.80;1.20;;;12.50;18.30;;;;;;5050512;28;20422;-70
2023/03/15 11:43:14;;;;;;;2.10;1.30;;;11.70;17.50;;;;;;5053455;28;20438;-70
2023/03/15 11:46:04;;;;;;;2.00;1.20;;;11.10;17.60;;;;;;5053332;28;20415;-70
2023/03/15 11:48:52;;;;;;;2.00;1.30;;;10.90;18.90;;;;;;5052999;28;20456;-70
2023/03/15 11:51:18;;;;;;;1.83;1.17;;;11.00;18.70;;;;;;5052243;28;20478;-70
2023/03/15 11:54:05;;;;;;;1.90;1.20;;;11.00;19.50;;;;;;5053272;28;20788;-70
2023/03/15 11:56:45;;;;;;;1.80;1.10;;;11.90;20.10;;;;;;5035618;28;20550;-70
2023/03/15 11:59:14;;;;;;;2.20;1.40;;;12.90;17.40;;;;;;5054341;28;20429;-70
2023/03/15 12:01:50;;;;;;;2.00;1.20;;;12.20;17.30;;;;;;5053883;28;20448;-70
2023/03/15 12:04:27;;;;;;;1.90;1.10;;;12.10;18.40;;;;;;5053961;28;20411;-70
2023/03/15 12:06:55;;;;;;;1.90;1.10;;;11.30;19.00;;;;;;5052652;28;20488;-70
2023/03/15 12:09:35;;;;;;;1.80;1.20;;;12.30;18.40;;;;;;5053433;28;20462;-70
2023/03/15 12:12:23;;;;;;;1.90;1.27;;;12.70;17.00;;;;;;5054505;28;20442;-70
2023/03/15 12:15:04;;;;;;;1.80;1.20;;;13.70;16.80;;;;;;5046473;28;20901;-70
2023/03/15 12:17:29;;;;;;;1.97;1.20;;;13.80;16.00;;;;;;5051137;28;20430;-69
2023/03/15 12:20:12;;;;;;;1.80;1.10;;;14.20;15.80;;;;;;5053631;28;20406;-69
2023/03/15 12:22:42;;;;;;;1.80;1.20;;;13.90;15.90;;;;;;5053587;28;20199;-70
2023/03/15 12:25:14;;;;;;;1.80;1.10;;;13.00;17.00;;;;;;5053973;28;20404;-70
2023/03/15 12:27:50;;;;;;;1.90;1.20;;;13.80;15.90;;;;;;5050497;28;20468;-69
2023/03/15 12:30:30;;;;;;;1.80;1.13;;;12.80;16.60;;;;;;5050042;28;20472;-69
2023/03/15 12:32:56;;;;;;;1.80;1.10;;;13.50;16.90;;;;;;5053136;28;20459;-68
2023/03/15 12:35:35;;;;;;;1.70;1.00;;;13.10;17.30;;;;;;5052836;28;20457;-68
2023/03/15 12:38:01;;;;;;;2.00;1.30;;;12.00;18.10;;;;;;5046528;28;20475;-65
2023/03/15 12:40:27;;;;;;;1.90;1.20;;;12.60;18.50;;;;;;5044483;28;20966;-68
2023/03/15 12:42:53;;;;;;;1.80;1.10;;;12.00;19.10;;;;;;5051316;28;20490;-68
2023/03/15 12:45:19;;;;;;;1.80;1.20;;;12.30;18.20;;;;;;5052254;28;20308;-67
2023/03/15 12:47:50;;;;;;;1.90;1.20;;;12.20;18.00;;;;;;5049336;28;20305;-68
2023/03/15 12:50:37;;;;;;;1.70;1.10;;;10.70;20.00;;;;;;5046977;28;20440;-66
2023/03/15 12:53:18;;;;;;;2.00;1.40;;;10.40;20.60;;;;;;5049342;28;20509;-68
2023/03/15 12:55:44;;;;;;;1.90;1.20;;;11.40;20.40;;;;;;5050409;28;20462;-68
2023/03/15 12:58:12;;;;;;;1.87;1.20;;;10.70;20.70;;;;;;5048948;28;20462;-68
2023/03/15 13:00:40;;;;;;;1.80;1.10;;;11.00;20.10;;;;;;5051738;28;20510;-68
2023/03/15 13:03:20;;;;;;;1.90;1.20;;;11.10;20.90;;;;;;5051488;28;20436;-68
2023/03/15 13:06:23;;;;;;;1.70;1.10;;;11.90;19.60;;;;;;5049049;28;20430;-68